sensor_id;sensor_type;location;lat;lon;timestamp;temperature;humidity
7998;DHT22;4044;49.814;7.828;2022-08-19T00:01:31;20.30;82.90
7998;DHT22;4044;49.814;7.828;2022-08-19T00:03:58;20.30;83.20
7998;DHT22;4044;49.814;7.828;2022-08-19T00:06:24;20.30;82.80
7998;DHT22;4044;49.814;7.828;2022-08-19T00:08:50;20.30;83.30
7998;DHT22;4044;49.814;7.828;2022-08-19T00:11:16;20.30;83.20
7998;DHT22;4044;49.814;7.828;2022-08-19T00:13:42;20.40;83.40
7998;DHT22;4044;49.814;7.828;2022-08-19T00:16:08;20.40;83.00
7998;DHT22;4044;49.814;7.828;2022-08-19T00:18:34;20.40;83.30
7998;DHT22;4044;49.814;7.828;2022-08-19T00:20:59;20.30;83.60
7998;DHT22;4044;49.814;7.828;2022-08-19T00:23:26;20.30;83.30
7998;DHT22;4044;49.814;7.828;2022-08-19T00:25:53;20.30;83.90
7998;DHT22;4044;49.814;7.828;2022-08-19T00:28:18;20.30;84.50
7998;DHT22;4044;49.814;7.828;2022-08-19T00:30:46;20.30;83.70
7998;DHT22;4044;49.814;7.828;2022-08-19T00:33:11;20.30;83.50
7998;DHT22;4044;49.814;7.828;2022-08-19T00:35:37;20.30;83.90
7998;DHT22;4044;49.814;7.828;2022-08-19T00:38:04;20.10;83.70
7998;DHT22;4044;49.814;7.828;2022-08-19T00:40:32;20.20;85.10
7998;DHT22;4044;49.814;7.828;2022-08-19T00:42:57;20.20;84.20
7998;DHT22;4044;49.814;7.828;2022-08-19T00:45:25;20.10;84.70
7998;DHT22;4044;49.814;7.828;2022-08-19T00:47:51;20.10;84.50
7998;DHT22;4044;49.814;7.828;2022-08-19T00:50:20;20.20;84.40
7998;DHT22;4044;49.814;7.828;2022-08-19T00:52:47;20.20;84.40
7998;DHT22;4044;49.814;7.828;2022-08-19T00:55:20;20.20;84.40
7998;DHT22;4044;49.814;7.828;2022-08-19T00:57:56;20.20;84.70
7998;DHT22;4044;49.814;7.828;2022-08-19T01:00:24;20.10;84.50
7998;DHT22;4044;49.814;7.828;2022-08-19T01:02:50;20.10;84.20
7998;DHT22;4044;49.814;7.828;2022-08-19T01:05:20;20.10;84.30
7998;DHT22;4044;49.814;7.828;2022-08-19T01:07:48;20.10;85.20
7998;DHT22;4044;49.814;7.828;2022-08-19T01:10:17;20.00;84.80
7998;DHT22;4044;49.814;7.828;2022-08-19T01:12:46;20.00;84.50
7998;DHT22;4044;49.814;7.828;2022-08-19T01:15:15;20.00;85.70
7998;DHT22;4044;49.814;7.828;2022-08-19T01:17:42;19.90;84.60
7998;DHT22;4044;49.814;7.828;2022-08-19T01:20:13;19.90;84.80
7998;DHT22;4044;49.814;7.828;2022-08-19T01:22:50;19.80;84.80
7998;DHT22;4044;49.814;7.828;2022-08-19T01:25:18;19.80;85.30
7998;DHT22;4044;49.814;7.828;2022-08-19T01:27:47;19.70;85.20
7998;DHT22;4044;49.814;7.828;2022-08-19T01:30:34;19.60;85.40
7998;DHT22;4044;49.814;7.828;2022-08-19T01:33:00;19.50;86.90
7998;DHT22;4044;49.814;7.828;2022-08-19T01:35:28;19.50;86.00
7998;DHT22;4044;49.814;7.828;2022-08-19T01:38:01;19.40;86.00
7998;DHT22;4044;49.814;7.828;2022-08-19T01:40:32;19.30;85.90
7998;DHT22;4044;49.814;7.828;2022-08-19T01:42:59;19.20;87.50
7998;DHT22;4044;49.814;7.828;2022-08-19T01:45:26;19.10;88.80
7998;DHT22;4044;49.814;7.828;2022-08-19T01:47:53;19.00;88.90
7998;DHT22;4044;49.814;7.828;2022-08-19T01:50:19;19.00;88.40
7998;DHT22;4044;49.814;7.828;2022-08-19T01:52:45;19.00;88.40
7998;DHT22;4044;49.814;7.828;2022-08-19T01:55:19;19.00;88.20
7998;DHT22;4044;49.814;7.828;2022-08-19T01:57:55;18.90;87.90
7998;DHT22;4044;49.814;7.828;2022-08-19T02:00:24;18.90;88.10
7998;DHT22;4044;49.814;7.828;2022-08-19T02:02:53;18.90;87.80
7998;DHT22;4044;49.814;7.828;2022-08-19T02:05:18;18.80;88.70
7998;DHT22;4044;49.814;7.828;2022-08-19T02:07:46;18.80;89.00
7998;DHT22;4044;49.814;7.828;2022-08-19T02:10:18;18.60;90.10
7998;DHT22;4044;49.814;7.828;2022-08-19T02:12:45;18.50;90.10
7998;DHT22;4044;49.814;7.828;2022-08-19T02:15:11;18.40;90.70
7998;DHT22;4044;49.814;7.828;2022-08-19T02:17:37;18.30;90.90
7998;DHT22;4044;49.814;7.828;2022-08-19T02:20:03;18.40;91.20
7998;DHT22;4044;49.814;7.828;2022-08-19T02:22:30;18.40;90.60
7998;DHT22;4044;49.814;7.828;2022-08-19T02:24:56;18.60;90.20
7998;DHT22;4044;49.814;7.828;2022-08-19T02:27:22;18.70;90.30
7998;DHT22;4044;49.814;7.828;2022-08-19T02:29:50;18.70;89.90
7998;DHT22;4044;49.814;7.828;2022-08-19T02:32:16;18.80;90.00
7998;DHT22;4044;49.814;7.828;2022-08-19T02:34:44;18.90;89.70
7998;DHT22;4044;49.814;7.828;2022-08-19T02:37:09;18.90;89.50
7998;DHT22;4044;49.814;7.828;2022-08-19T02:39:55;18.90;89.30
7998;DHT22;4044;49.814;7.828;2022-08-19T02:42:21;18.80;89.60
7998;DHT22;4044;49.814;7.828;2022-08-19T02:44:46;18.70;89.90
7998;DHT22;4044;49.814;7.828;2022-08-19T02:47:12;18.60;89.90
7998;DHT22;4044;49.814;7.828;2022-08-19T02:49:39;18.60;89.20
7998;DHT22;4044;49.814;7.828;2022-08-19T02:52:05;18.50;90.00
7998;DHT22;4044;49.814;7.828;2022-08-19T02:54:30;18.40;90.20
7998;DHT22;4044;49.814;7.828;2022-08-19T02:56:56;18.40;89.90
7998;DHT22;4044;49.814;7.828;2022-08-19T02:59:21;18.30;90.20
7998;DHT22;4044;49.814;7.828;2022-08-19T03:01:47;18.20;90.30
7998;DHT22;4044;49.814;7.828;2022-08-19T03:04:14;18.10;91.10
7998;DHT22;4044;49.814;7.828;2022-08-19T03:06:43;18.00;90.90
7998;DHT22;4044;49.814;7.828;2022-08-19T03:09:10;17.90;91.90
7998;DHT22;4044;49.814;7.828;2022-08-19T03:11:36;17.90;91.40
7998;DHT22;4044;49.814;7.828;2022-08-19T03:14:04;17.80;91.80
7998;DHT22;4044;49.814;7.828;2022-08-19T03:16:33;17.80;91.90
7998;DHT22;4044;49.814;7.828;2022-08-19T03:19:00;17.80;91.70
7998;DHT22;4044;49.814;7.828;2022-08-19T03:21:29;17.80;91.80
7998;DHT22;4044;49.814;7.828;2022-08-19T03:23:56;17.80;91.30
7998;DHT22;4044;49.814;7.828;2022-08-19T03:26:22;17.70;91.10
7998;DHT22;4044;49.814;7.828;2022-08-19T03:28:47;17.60;90.80
7998;DHT22;4044;49.814;7.828;2022-08-19T03:31:16;17.60;91.40
7998;DHT22;4044;49.814;7.828;2022-08-19T03:33:42;17.60;92.40
7998;DHT22;4044;49.814;7.828;2022-08-19T03:36:20;17.50;92.50
7998;DHT22;4044;49.814;7.828;2022-08-19T03:38:50;17.40;93.10
7998;DHT22;4044;49.814;7.828;2022-08-19T03:41:20;17.40;92.70
7998;DHT22;4044;49.814;7.828;2022-08-19T03:43:47;17.40;92.40
7998;DHT22;4044;49.814;7.828;2022-08-19T03:46:19;17.40;92.60
7998;DHT22;4044;49.814;7.828;2022-08-19T03:48:50;17.40;92.40
7998;DHT22;4044;49.814;7.828;2022-08-19T03:51:29;17.40;92.00
7998;DHT22;4044;49.814;7.828;2022-08-19T03:53:57;17.40;92.40
7998;DHT22;4044;49.814;7.828;2022-08-19T03:56:23;17.40;92.30
7998;DHT22;4044;49.814;7.828;2022-08-19T03:58:51;17.40;92.80
7998;DHT22;4044;49.814;7.828;2022-08-19T04:01:21;17.30;92.30
7998;DHT22;4044;49.814;7.828;2022-08-19T04:03:47;17.30;92.10
7998;DHT22;4044;49.814;7.828;2022-08-19T04:06:16;17.20;93.00
7998;DHT22;4044;49.814;7.828;2022-08-19T04:08:43;17.30;92.70
7998;DHT22;4044;49.814;7.828;2022-08-19T04:11:11;17.20;92.90
7998;DHT22;4044;49.814;7.828;2022-08-19T04:13:37;17.20;93.20
7998;DHT22;4044;49.814;7.828;2022-08-19T04:16:04;17.20;93.40
7998;DHT22;4044;49.814;7.828;2022-08-19T04:18:31;17.20;93.30
7998;DHT22;4044;49.814;7.828;2022-08-19T04:20:58;17.10;93.00
7998;DHT22;4044;49.814;7.828;2022-08-19T04:23:23;17.00;93.60
7998;DHT22;4044;49.814;7.828;2022-08-19T04:25:49;17.00;93.50
7998;DHT22;4044;49.814;7.828;2022-08-19T04:28:15;17.00;93.90
7998;DHT22;4044;49.814;7.828;2022-08-19T04:30:43;17.00;93.80
7998;DHT22;4044;49.814;7.828;2022-08-19T04:33:10;16.90;94.60
7998;DHT22;4044;49.814;7.828;2022-08-19T04:35:40;16.90;94.60
7998;DHT22;4044;49.814;7.828;2022-08-19T04:38:07;16.90;94.70
7998;DHT22;4044;49.814;7.828;2022-08-19T04:40:34;16.90;94.50
7998;DHT22;4044;49.814;7.828;2022-08-19T04:43:23;17.00;94.10
7998;DHT22;4044;49.814;7.828;2022-08-19T04:45:48;17.00;93.70
7998;DHT22;4044;49.814;7.828;2022-08-19T04:48:14;17.10;93.90
7998;DHT22;4044;49.814;7.828;2022-08-19T04:50:42;17.10;93.60
7998;DHT22;4044;49.814;7.828;2022-08-19T04:53:08;17.10;94.10
7998;DHT22;4044;49.814;7.828;2022-08-19T04:55:34;17.10;94.30
7998;DHT22;4044;49.814;7.828;2022-08-19T04:58:00;17.10;94.50
7998;DHT22;4044;49.814;7.828;2022-08-19T05:00:27;17.10;94.20
7998;DHT22;4044;49.814;7.828;2022-08-19T05:02:52;17.10;94.70
7998;DHT22;4044;49.814;7.828;2022-08-19T05:05:18;17.10;94.40
7998;DHT22;4044;49.814;7.828;2022-08-19T05:07:45;17.20;94.30
7998;DHT22;4044;49.814;7.828;2022-08-19T05:10:10;17.30;94.00
7998;DHT22;4044;49.814;7.828;2022-08-19T05:12:37;17.30;93.90
7998;DHT22;4044;49.814;7.828;2022-08-19T05:15:04;17.30;93.50
7998;DHT22;4044;49.814;7.828;2022-08-19T05:17:30;17.20;94.30
7998;DHT22;4044;49.814;7.828;2022-08-19T05:19:56;17.10;95.00
7998;DHT22;4044;49.814;7.828;2022-08-19T05:22:42;17.00;94.50
7998;DHT22;4044;49.814;7.828;2022-08-19T05:25:11;17.00;94.90
7998;DHT22;4044;49.814;7.828;2022-08-19T05:27:38;17.00;94.60
7998;DHT22;4044;49.814;7.828;2022-08-19T05:30:04;17.00;94.70
7998;DHT22;4044;49.814;7.828;2022-08-19T05:32:30;17.10;94.20
7998;DHT22;4044;49.814;7.828;2022-08-19T05:34:56;17.20;94.20
7998;DHT22;4044;49.814;7.828;2022-08-19T05:37:22;17.20;94.50
7998;DHT22;4044;49.814;7.828;2022-08-19T05:39:47;17.20;94.40
7998;DHT22;4044;49.814;7.828;2022-08-19T05:42:14;17.20;94.90
7998;DHT22;4044;49.814;7.828;2022-08-19T05:44:42;17.30;94.60
7998;DHT22;4044;49.814;7.828;2022-08-19T05:47:10;17.30;95.00
7998;DHT22;4044;49.814;7.828;2022-08-19T05:49:37;17.40;94.70
7998;DHT22;4044;49.814;7.828;2022-08-19T05:52:04;17.50;94.40
7998;DHT22;4044;49.814;7.828;2022-08-19T05:54:30;17.60;94.50
7998;DHT22;4044;49.814;7.828;2022-08-19T05:56:56;17.70;94.00
7998;DHT22;4044;49.814;7.828;2022-08-19T05:59:22;17.80;94.40
7998;DHT22;4044;49.814;7.828;2022-08-19T06:01:50;17.80;94.40
7998;DHT22;4044;49.814;7.828;2022-08-19T06:04:18;17.90;94.40
7998;DHT22;4044;49.814;7.828;2022-08-19T06:06:46;18.10;93.90
7998;DHT22;4044;49.814;7.828;2022-08-19T06:09:12;18.20;93.70
7998;DHT22;4044;49.814;7.828;2022-08-19T06:11:40;18.40;93.80
7998;DHT22;4044;49.814;7.828;2022-08-19T06:14:09;18.60;93.30
7998;DHT22;4044;49.814;7.828;2022-08-19T06:16:37;18.80;93.30
7998;DHT22;4044;49.814;7.828;2022-08-19T06:19:05;19.00;92.90
7998;DHT22;4044;49.814;7.828;2022-08-19T06:21:32;19.20;92.80
7998;DHT22;4044;49.814;7.828;2022-08-19T06:23:58;19.50;92.80
7998;DHT22;4044;49.814;7.828;2022-08-19T06:26:24;19.70;92.20
7998;DHT22;4044;49.814;7.828;2022-08-19T06:28:50;19.90;91.80
7998;DHT22;4044;49.814;7.828;2022-08-19T06:31:24;20.20;91.00
7998;DHT22;4044;49.814;7.828;2022-08-19T06:33:51;20.40;90.90
7998;DHT22;4044;49.814;7.828;2022-08-19T06:36:40;20.60;90.70
7998;DHT22;4044;49.814;7.828;2022-08-19T06:39:09;20.90;90.40
7998;DHT22;4044;49.814;7.828;2022-08-19T06:41:37;21.20;90.00
7998;DHT22;4044;49.814;7.828;2022-08-19T06:44:04;21.50;89.60
7998;DHT22;4044;49.814;7.828;2022-08-19T06:46:30;21.80;89.00
7998;DHT22;4044;49.814;7.828;2022-08-19T06:48:56;22.00;86.50
7998;DHT22;4044;49.814;7.828;2022-08-19T06:51:22;22.20;85.90
7998;DHT22;4044;49.814;7.828;2022-08-19T06:53:50;22.40;85.50
7998;DHT22;4044;49.814;7.828;2022-08-19T06:56:19;22.60;85.30
7998;DHT22;4044;49.814;7.828;2022-08-19T06:58:46;22.70;83.00
7998;DHT22;4044;49.814;7.828;2022-08-19T07:01:13;22.80;83.90
7998;DHT22;4044;49.814;7.828;2022-08-19T07:03:39;22.90;82.50
7998;DHT22;4044;49.814;7.828;2022-08-19T07:06:07;23.00;83.30
7998;DHT22;4044;49.814;7.828;2022-08-19T07:08:33;23.00;82.70
7998;DHT22;4044;49.814;7.828;2022-08-19T07:11:00;23.20;82.70
7998;DHT22;4044;49.814;7.828;2022-08-19T07:13:25;23.30;82.40
7998;DHT22;4044;49.814;7.828;2022-08-19T07:15:52;23.20;81.80
7998;DHT22;4044;49.814;7.828;2022-08-19T07:18:19;23.20;81.80
7998;DHT22;4044;49.814;7.828;2022-08-19T07:20:45;23.20;80.90
7998;DHT22;4044;49.814;7.828;2022-08-19T07:23:11;23.20;81.40
7998;DHT22;4044;49.814;7.828;2022-08-19T07:25:37;23.20;80.90
7998;DHT22;4044;49.814;7.828;2022-08-19T07:28:03;23.20;82.30
7998;DHT22;4044;49.814;7.828;2022-08-19T07:30:29;23.20;80.90
7998;DHT22;4044;49.814;7.828;2022-08-19T07:32:55;23.20;81.60
7998;DHT22;4044;49.814;7.828;2022-08-19T07:35:22;23.30;81.90
7998;DHT22;4044;49.814;7.828;2022-08-19T07:37:49;23.40;81.70
7998;DHT22;4044;49.814;7.828;2022-08-19T07:40:14;23.40;80.90
7998;DHT22;4044;49.814;7.828;2022-08-19T07:42:41;23.40;81.40
7998;DHT22;4044;49.814;7.828;2022-08-19T07:45:07;23.50;80.80
7998;DHT22;4044;49.814;7.828;2022-08-19T07:47:33;23.50;81.60
7998;DHT22;4044;49.814;7.828;2022-08-19T07:49:59;23.50;80.50
7998;DHT22;4044;49.814;7.828;2022-08-19T07:52:25;23.60;81.20
7998;DHT22;4044;49.814;7.828;2022-08-19T07:54:50;23.80;82.00
7998;DHT22;4044;49.814;7.828;2022-08-19T07:57:16;23.90;81.10
7998;DHT22;4044;49.814;7.828;2022-08-19T07:59:42;24.10;80.00
7998;DHT22;4044;49.814;7.828;2022-08-19T08:02:08;24.20;79.70
7998;DHT22;4044;49.814;7.828;2022-08-19T08:04:34;24.20;79.60
7998;DHT22;4044;49.814;7.828;2022-08-19T08:07:19;24.20;79.70
7998;DHT22;4044;49.814;7.828;2022-08-19T08:10:04;24.00;79.40
7998;DHT22;4044;49.814;7.828;2022-08-19T08:12:35;24.00;79.90
7998;DHT22;4044;49.814;7.828;2022-08-19T08:15:05;24.10;80.10
7998;DHT22;4044;49.814;7.828;2022-08-19T08:17:33;24.30;79.40
7998;DHT22;4044;49.814;7.828;2022-08-19T08:19:59;24.30;79.10
7998;DHT22;4044;49.814;7.828;2022-08-19T08:22:25;24.40;79.10
7998;DHT22;4044;49.814;7.828;2022-08-19T08:25:21;24.60;78.50
7998;DHT22;4044;49.814;7.828;2022-08-19T08:27:48;24.70;77.40
7998;DHT22;4044;49.814;7.828;2022-08-19T08:30:25;24.70;77.70
7998;DHT22;4044;49.814;7.828;2022-08-19T08:32:52;24.80;78.00
7998;DHT22;4044;49.814;7.828;2022-08-19T08:35:20;24.90;77.60
7998;DHT22;4044;49.814;7.828;2022-08-19T08:37:47;25.00;76.80
7998;DHT22;4044;49.814;7.828;2022-08-19T08:40:33;25.20;76.10
7998;DHT22;4044;49.814;7.828;2022-08-19T08:43:11;25.10;75.30
7998;DHT22;4044;49.814;7.828;2022-08-19T08:45:45;25.10;74.50
7998;DHT22;4044;49.814;7.828;2022-08-19T08:48:37;25.10;73.60
7998;DHT22;4044;49.814;7.828;2022-08-19T08:51:07;25.00;71.90
7998;DHT22;4044;49.814;7.828;2022-08-19T08:53:35;25.00;73.20
7998;DHT22;4044;49.814;7.828;2022-08-19T08:56:04;25.00;74.20
7998;DHT22;4044;49.814;7.828;2022-08-19T09:01:10;25.00;72.80
7998;DHT22;4044;49.814;7.828;2022-08-19T09:03:38;25.10;72.20
7998;DHT22;4044;49.814;7.828;2022-08-19T09:09:13;25.20;71.20
7998;DHT22;4044;49.814;7.828;2022-08-19T09:17:09;25.30;71.90
7998;DHT22;4044;49.814;7.828;2022-08-19T09:22:15;25.30;72.40
7998;DHT22;4044;49.814;7.828;2022-08-19T09:24:41;25.50;72.40
7998;DHT22;4044;49.814;7.828;2022-08-19T09:27:06;25.50;70.50
7998;DHT22;4044;49.814;7.828;2022-08-19T09:29:32;25.40;70.50
7998;DHT22;4044;49.814;7.828;2022-08-19T09:31:57;25.40;70.70
7998;DHT22;4044;49.814;7.828;2022-08-19T09:34:23;25.40;70.60
7998;DHT22;4044;49.814;7.828;2022-08-19T09:36:49;25.40;68.70
7998;DHT22;4044;49.814;7.828;2022-08-19T09:39:20;25.50;68.90
7998;DHT22;4044;49.814;7.828;2022-08-19T09:41:46;25.50;67.80
7998;DHT22;4044;49.814;7.828;2022-08-19T09:44:12;25.60;66.80
7998;DHT22;4044;49.814;7.828;2022-08-19T09:46:38;25.70;66.50
7998;DHT22;4044;49.814;7.828;2022-08-19T09:49:04;25.70;66.10
7998;DHT22;4044;49.814;7.828;2022-08-19T09:51:32;25.70;67.00
7998;DHT22;4044;49.814;7.828;2022-08-19T09:54:02;25.80;65.70
7998;DHT22;4044;49.814;7.828;2022-08-19T09:56:28;25.90;65.50
7998;DHT22;4044;49.814;7.828;2022-08-19T09:58:57;26.00;65.20
7998;DHT22;4044;49.814;7.828;2022-08-19T10:01:25;26.10;65.10
7998;DHT22;4044;49.814;7.828;2022-08-19T10:03:54;26.10;64.80
7998;DHT22;4044;49.814;7.828;2022-08-19T10:06:22;26.30;64.70
7998;DHT22;4044;49.814;7.828;2022-08-19T10:08:48;26.60;63.60
7998;DHT22;4044;49.814;7.828;2022-08-19T10:11:15;26.70;62.60
7998;DHT22;4044;49.814;7.828;2022-08-19T10:13:43;26.90;63.60
7998;DHT22;4044;49.814;7.828;2022-08-19T10:16:13;27.10;60.00
7998;DHT22;4044;49.814;7.828;2022-08-19T10:18:39;27.30;59.90
7998;DHT22;4044;49.814;7.828;2022-08-19T10:21:41;27.60;60.20
7998;DHT22;4044;49.814;7.828;2022-08-19T10:24:02;27.90;58.80
7998;DHT22;4044;49.814;7.828;2022-08-19T10:26:32;28.30;57.10
7998;DHT22;4044;49.814;7.828;2022-08-19T10:28:58;28.40;57.10
7998;DHT22;4044;49.814;7.828;2022-08-19T10:31:28;28.60;56.50
7998;DHT22;4044;49.814;7.828;2022-08-19T10:33:54;28.90;57.10
7998;DHT22;4044;49.814;7.828;2022-08-19T10:36:26;29.20;55.50
7998;DHT22;4044;49.814;7.828;2022-08-19T10:38:55;29.50;55.10
7998;DHT22;4044;49.814;7.828;2022-08-19T10:41:23;29.40;55.50
7998;DHT22;4044;49.814;7.828;2022-08-19T10:43:54;29.50;55.10
7998;DHT22;4044;49.814;7.828;2022-08-19T10:46:22;29.50;54.80
7998;DHT22;4044;49.814;7.828;2022-08-19T10:48:48;29.60;54.70
7998;DHT22;4044;49.814;7.828;2022-08-19T10:51:15;29.50;54.30
7998;DHT22;4044;49.814;7.828;2022-08-19T10:54:00;29.40;53.90
7998;DHT22;4044;49.814;7.828;2022-08-19T10:56:26;29.50;53.70
7998;DHT22;4044;49.814;7.828;2022-08-19T10:59:10;29.90;54.10
7998;DHT22;4044;49.814;7.828;2022-08-19T11:01:39;30.50;53.40
7998;DHT22;4044;49.814;7.828;2022-08-19T11:04:05;30.10;52.20
7998;DHT22;4044;49.814;7.828;2022-08-19T11:06:34;29.60;52.70
7998;DHT22;4044;49.814;7.828;2022-08-19T11:08:59;29.60;55.10
7998;DHT22;4044;49.814;7.828;2022-08-19T11:11:26;30.00;53.10
7998;DHT22;4044;49.814;7.828;2022-08-19T11:13:52;30.20;53.90
7998;DHT22;4044;49.814;7.828;2022-08-19T11:16:23;30.60;51.90
7998;DHT22;4044;49.814;7.828;2022-08-19T11:18:53;30.70;51.70
7998;DHT22;4044;49.814;7.828;2022-08-19T11:21:22;31.10;52.50
7998;DHT22;4044;49.814;7.828;2022-08-19T11:23:51;31.00;52.20
7998;DHT22;4044;49.814;7.828;2022-08-19T11:26:18;31.00;49.60
7998;DHT22;4044;49.814;7.828;2022-08-19T11:28:45;30.80;49.70
7998;DHT22;4044;49.814;7.828;2022-08-19T11:31:18;31.10;49.80
7998;DHT22;4044;49.814;7.828;2022-08-19T11:33:44;31.10;48.80
7998;DHT22;4044;49.814;7.828;2022-08-19T11:36:11;31.30;50.70
7998;DHT22;4044;49.814;7.828;2022-08-19T11:38:37;31.20;49.00
7998;DHT22;4044;49.814;7.828;2022-08-19T11:41:05;31.50;49.50
7998;DHT22;4044;49.814;7.828;2022-08-19T11:43:33;31.80;49.80
7998;DHT22;4044;49.814;7.828;2022-08-19T11:45:59;32.20;49.60
7998;DHT22;4044;49.814;7.828;2022-08-19T11:48:28;32.40;48.30
7998;DHT22;4044;49.814;7.828;2022-08-19T11:50:53;32.30;49.10
7998;DHT22;4044;49.814;7.828;2022-08-19T11:53:22;32.60;48.50
7998;DHT22;4044;49.814;7.828;2022-08-19T11:55:48;32.80;47.80
7998;DHT22;4044;49.814;7.828;2022-08-19T11:58:15;33.10;48.00
7998;DHT22;4044;49.814;7.828;2022-08-19T12:00:42;33.30;47.60
7998;DHT22;4044;49.814;7.828;2022-08-19T12:03:12;33.30;46.60
7998;DHT22;4044;49.814;7.828;2022-08-19T12:05:39;34.10;46.20
7998;DHT22;4044;49.814;7.828;2022-08-19T12:08:05;34.60;45.70
7998;DHT22;4044;49.814;7.828;2022-08-19T12:10:31;35.30;44.40
7998;DHT22;4044;49.814;7.828;2022-08-19T12:12:57;35.80;45.40
7998;DHT22;4044;49.814;7.828;2022-08-19T12:15:22;36.50;44.00
7998;DHT22;4044;49.814;7.828;2022-08-19T12:17:48;37.30;41.30
7998;DHT22;4044;49.814;7.828;2022-08-19T12:20:14;37.40;42.60
7998;DHT22;4044;49.814;7.828;2022-08-19T12:22:42;37.10;41.70
7998;DHT22;4044;49.814;7.828;2022-08-19T12:25:09;35.60;43.10
7998;DHT22;4044;49.814;7.828;2022-08-19T12:27:35;34.80;44.80
7998;DHT22;4044;49.814;7.828;2022-08-19T12:30:03;34.10;45.70
7998;DHT22;4044;49.814;7.828;2022-08-19T12:32:29;34.00;45.60
7998;DHT22;4044;49.814;7.828;2022-08-19T12:34:54;34.70;45.50
7998;DHT22;4044;49.814;7.828;2022-08-19T12:37:20;35.70;43.20
7998;DHT22;4044;49.814;7.828;2022-08-19T12:39:45;35.90;41.60
7998;DHT22;4044;49.814;7.828;2022-08-19T12:42:12;36.40;42.10
7998;DHT22;4044;49.814;7.828;2022-08-19T12:44:39;36.40;41.30
7998;DHT22;4044;49.814;7.828;2022-08-19T12:47:06;36.90;41.10
7998;DHT22;4044;49.814;7.828;2022-08-19T12:49:32;37.00;40.00
7998;DHT22;4044;49.814;7.828;2022-08-19T12:52:05;37.10;40.80
7998;DHT22;4044;49.814;7.828;2022-08-19T12:54:32;36.70;41.00
7998;DHT22;4044;49.814;7.828;2022-08-19T12:56:58;37.70;40.10
7998;DHT22;4044;49.814;7.828;2022-08-19T12:59:25;38.70;39.80
7998;DHT22;4044;49.814;7.828;2022-08-19T13:01:51;39.00;38.00
7998;DHT22;4044;49.814;7.828;2022-08-19T13:04:17;39.60;38.80
7998;DHT22;4044;49.814;7.828;2022-08-19T13:06:42;39.60;37.00
7998;DHT22;4044;49.814;7.828;2022-08-19T13:09:08;38.80;37.70
7998;DHT22;4044;49.814;7.828;2022-08-19T13:11:34;37.70;37.90
7998;DHT22;4044;49.814;7.828;2022-08-19T13:14:02;36.90;39.30
7998;DHT22;4044;49.814;7.828;2022-08-19T13:16:28;36.30;40.30
7998;DHT22;4044;49.814;7.828;2022-08-19T13:18:54;35.50;40.70
7998;DHT22;4044;49.814;7.828;2022-08-19T13:21:24;34.60;41.90
7998;DHT22;4044;49.814;7.828;2022-08-19T13:23:51;34.00;42.10
7998;DHT22;4044;49.814;7.828;2022-08-19T13:26:17;33.60;43.20
7998;DHT22;4044;49.814;7.828;2022-08-19T13:28:44;33.30;44.30
7998;DHT22;4044;49.814;7.828;2022-08-19T13:31:31;34.10;43.80
7998;DHT22;4044;49.814;7.828;2022-08-19T13:34:18;35.80;41.70
7998;DHT22;4044;49.814;7.828;2022-08-19T13:36:44;36.90;39.80
7998;DHT22;4044;49.814;7.828;2022-08-19T13:39:10;37.70;39.10
7998;DHT22;4044;49.814;7.828;2022-08-19T13:41:37;38.50;39.20
7998;DHT22;4044;49.814;7.828;2022-08-19T13:44:04;38.80;39.10
7998;DHT22;4044;49.814;7.828;2022-08-19T13:46:31;38.70;37.40
7998;DHT22;4044;49.814;7.828;2022-08-19T13:48:56;37.00;37.80
7998;DHT22;4044;49.814;7.828;2022-08-19T13:51:22;36.50;40.10
7998;DHT22;4044;49.814;7.828;2022-08-19T13:53:48;37.30;39.30
7998;DHT22;4044;49.814;7.828;2022-08-19T13:56:17;37.90;39.90
7998;DHT22;4044;49.814;7.828;2022-08-19T13:58:43;39.10;38.10
7998;DHT22;4044;49.814;7.828;2022-08-19T14:01:10;39.40;37.30
7998;DHT22;4044;49.814;7.828;2022-08-19T14:03:36;40.00;37.10
7998;DHT22;4044;49.814;7.828;2022-08-19T14:06:02;40.50;37.30
7998;DHT22;4044;49.814;7.828;2022-08-19T14:08:28;39.80;35.50
7998;DHT22;4044;49.814;7.828;2022-08-19T14:10:55;39.00;37.30
7998;DHT22;4044;49.814;7.828;2022-08-19T14:13:22;38.10;38.30
7998;DHT22;4044;49.814;7.828;2022-08-19T14:15:48;37.40;39.60
7998;DHT22;4044;49.814;7.828;2022-08-19T14:18:15;38.20;38.90
7998;DHT22;4044;49.814;7.828;2022-08-19T14:20:41;38.30;38.40
7998;DHT22;4044;49.814;7.828;2022-08-19T14:23:07;37.80;38.30
7998;DHT22;4044;49.814;7.828;2022-08-19T14:25:33;37.30;39.30
7998;DHT22;4044;49.814;7.828;2022-08-19T14:27:59;36.70;39.30
7998;DHT22;4044;49.814;7.828;2022-08-19T14:30:33;35.90;39.50
7998;DHT22;4044;49.814;7.828;2022-08-19T14:33:00;35.90;39.60
7998;DHT22;4044;49.814;7.828;2022-08-19T14:35:31;36.20;40.00
7998;DHT22;4044;49.814;7.828;2022-08-19T14:38:00;36.30;40.00
7998;DHT22;4044;49.814;7.828;2022-08-19T14:40:27;35.60;40.30
7998;DHT22;4044;49.814;7.828;2022-08-19T14:42:54;34.90;41.50
7998;DHT22;4044;49.814;7.828;2022-08-19T14:45:26;36.20;40.50
7998;DHT22;4044;49.814;7.828;2022-08-19T14:47:52;37.10;39.20
7998;DHT22;4044;49.814;7.828;2022-08-19T14:50:18;37.70;38.40
7998;DHT22;4044;49.814;7.828;2022-08-19T14:52:46;39.10;38.70
7998;DHT22;4044;49.814;7.828;2022-08-19T14:55:14;39.80;37.80
7998;DHT22;4044;49.814;7.828;2022-08-19T14:57:41;39.30;37.80
7998;DHT22;4044;49.814;7.828;2022-08-19T15:00:07;39.20;38.50
7998;DHT22;4044;49.814;7.828;2022-08-19T15:02:37;39.70;37.80
7998;DHT22;4044;49.814;7.828;2022-08-19T15:05:02;39.40;38.10
7998;DHT22;4044;49.814;7.828;2022-08-19T15:07:28;38.40;38.50
7998;DHT22;4044;49.814;7.828;2022-08-19T15:09:54;37.20;39.70
7998;DHT22;4044;49.814;7.828;2022-08-19T15:12:20;36.30;39.60
7998;DHT22;4044;49.814;7.828;2022-08-19T15:14:47;35.50;41.20
7998;DHT22;4044;49.814;7.828;2022-08-19T15:17:16;35.60;41.20
7998;DHT22;4044;49.814;7.828;2022-08-19T15:19:41;35.60;41.30
7998;DHT22;4044;49.814;7.828;2022-08-19T15:22:07;36.60;40.50
7998;DHT22;4044;49.814;7.828;2022-08-19T15:24:33;36.80;40.40
7998;DHT22;4044;49.814;7.828;2022-08-19T15:27:00;36.40;40.20
7998;DHT22;4044;49.814;7.828;2022-08-19T15:29:26;36.90;39.80
7998;DHT22;4044;49.814;7.828;2022-08-19T15:31:52;36.60;39.80
7998;DHT22;4044;49.814;7.828;2022-08-19T15:34:21;36.30;40.10
7998;DHT22;4044;49.814;7.828;2022-08-19T15:36:46;35.80;40.50
7998;DHT22;4044;49.814;7.828;2022-08-19T15:39:12;36.40;41.30
7998;DHT22;4044;49.814;7.828;2022-08-19T15:41:38;36.60;41.20
7998;DHT22;4044;49.814;7.828;2022-08-19T15:44:13;36.20;41.70
7998;DHT22;4044;49.814;7.828;2022-08-19T15:46:41;36.50;40.90
7998;DHT22;4044;49.814;7.828;2022-08-19T15:49:09;36.20;41.30
7998;DHT22;4044;49.814;7.828;2022-08-19T15:51:36;36.30;40.60
7998;DHT22;4044;49.814;7.828;2022-08-19T15:54:06;37.00;40.40
7998;DHT22;4044;49.814;7.828;2022-08-19T15:56:32;37.70;39.60
7998;DHT22;4044;49.814;7.828;2022-08-19T15:59:30;37.60;39.20
7998;DHT22;4044;49.814;7.828;2022-08-19T16:02:16;36.50;40.50
7998;DHT22;4044;49.814;7.828;2022-08-19T16:05:01;36.50;40.60
7998;DHT22;4044;49.814;7.828;2022-08-19T16:07:45;37.40;39.40
7998;DHT22;4044;49.814;7.828;2022-08-19T16:10:12;37.50;38.50
7998;DHT22;4044;49.814;7.828;2022-08-19T16:12:39;37.80;38.50
7998;DHT22;4044;49.814;7.828;2022-08-19T16:15:09;37.70;37.80
7998;DHT22;4044;49.814;7.828;2022-08-19T16:17:35;38.00;38.10
7998;DHT22;4044;49.814;7.828;2022-08-19T16:20:04;38.20;37.50
7998;DHT22;4044;49.814;7.828;2022-08-19T16:22:31;37.80;37.80